createdAt,value
2022-10-23T00:01:13.759Z,14.46
2022-10-23T00:03:17.048Z,14.43
2022-10-23T00:05:20.465Z,14.42
2022-10-23T00:07:23.566Z,14.41
2022-10-23T00:09:26.576Z,14.40
2022-10-23T00:11:32.492Z,14.38
2022-10-23T00:13:37.243Z,14.37
2022-10-23T00:15:40.223Z,14.35
2022-10-23T00:17:43.519Z,14.35
2022-10-23T00:19:46.635Z,14.41
2022-10-23T00:21:49.663Z,14.39
2022-10-23T00:23:53.183Z,14.29
2022-10-23T00:25:56.049Z,14.28
2022-10-23T00:27:59.066Z,14.28
2022-10-23T00:30:05.058Z,14.23
2022-10-23T00:32:08.023Z,14.17
2022-10-23T00:34:11.462Z,14.12
2022-10-23T00:36:16.936Z,14.05
2022-10-23T00:38:20.020Z,14.06
2022-10-23T00:40:23.377Z,14.05
2022-10-23T00:42:26.312Z,14.01
2022-10-23T00:45:06.723Z,13.96
2022-10-23T00:47:11.524Z,13.95
2022-10-23T00:49:15.066Z,13.89
2022-10-23T00:51:18.479Z,13.86
2022-10-23T00:53:22.760Z,13.87
2022-10-23T00:55:26.719Z,13.76
2022-10-23T00:57:29.673Z,13.72
2022-10-23T00:59:33.804Z,13.74
2022-10-23T01:01:36.790Z,13.75
2022-10-23T01:03:44.399Z,13.71
2022-10-23T01:05:50.733Z,13.62
2022-10-23T01:07:56.665Z,13.63
2022-10-23T01:10:03.102Z,13.77
2022-10-23T01:12:12.671Z,13.83
2022-10-23T01:14:23.225Z,13.77
2022-10-23T01:16:37.495Z,13.94
2022-10-23T01:18:46.529Z,13.96
2022-10-23T01:20:54.040Z,14.09
2022-10-23T01:23:30.850Z,14.17
2022-10-23T01:25:49.052Z,14.25
2022-10-23T01:27:59.290Z,14.32
2022-10-23T01:30:06.203Z,14.42
2022-10-23T01:32:27.305Z,14.51
2022-10-23T01:34:33.918Z,14.58
2022-10-23T01:36:40.255Z,14.68
2022-10-23T01:38:47.491Z,14.75
2022-10-23T01:41:02.285Z,14.83
2022-10-23T01:43:11.431Z,14.86
2022-10-23T01:45:19.133Z,14.92
2022-10-23T01:47:25.896Z,14.94
2022-10-23T01:49:44.247Z,14.98
2022-10-23T01:51:50.231Z,14.95
2022-10-23T01:53:57.495Z,14.97
2022-10-23T01:56:04.218Z,14.96
2022-10-23T01:58:09.518Z,14.98
2022-10-23T02:00:18.562Z,14.98
2022-10-23T02:02:27.913Z,14.94
2022-10-23T02:04:34.718Z,14.86
2022-10-23T02:06:39.880Z,14.80
2022-10-23T02:08:43.252Z,14.73
2022-10-23T02:10:50.816Z,14.69
2022-10-23T02:13:02.803Z,14.70
2022-10-23T02:15:12.198Z,14.61
2022-10-23T02:17:20.075Z,14.60
2022-10-23T02:19:28.363Z,14.59
2022-10-23T02:21:50.254Z,14.60
2022-10-23T02:23:56.326Z,14.58
2022-10-23T02:26:02.618Z,14.57
2022-10-23T02:28:09.464Z,14.56
2022-10-23T02:30:21.409Z,14.53
2022-10-23T02:32:45.831Z,14.51
2022-10-23T02:34:49.446Z,14.48
2022-10-23T02:36:52.615Z,14.45
2022-10-23T02:38:57.378Z,14.43
2022-10-23T02:41:09.985Z,14.42
2022-10-23T02:43:17.930Z,14.39
2022-10-23T02:45:26.816Z,14.32
2022-10-23T02:47:37.523Z,14.31
2022-10-23T02:49:44.231Z,14.25
2022-10-23T02:51:59.246Z,14.27
2022-10-23T02:54:06.804Z,14.25
2022-10-23T02:56:14.844Z,14.18
2022-10-23T02:58:23.903Z,14.21
2022-10-23T03:00:32.550Z,14.23
2022-10-23T03:02:39.702Z,14.21
2022-10-23T03:04:45.660Z,14.19
2022-10-23T03:06:51.085Z,14.15
2022-10-23T03:08:55.214Z,14.16
2022-10-23T03:11:00.893Z,14.16
2022-10-23T03:13:04.725Z,14.15
2022-10-23T03:15:16.326Z,14.15
2022-10-23T03:17:20.867Z,14.15
2022-10-23T03:19:23.808Z,14.17
2022-10-23T03:21:26.854Z,14.18
2022-10-23T03:23:29.956Z,14.18
2022-10-23T03:25:33.276Z,14.17
2022-10-23T03:27:38.279Z,14.14
2022-10-23T03:29:43.995Z,14.10
2022-10-23T03:31:46.941Z,14.07
2022-10-23T03:33:51.210Z,14.03
2022-10-23T03:35:56.926Z,14.02
2022-10-23T03:38:00.428Z,13.96
2022-10-23T03:40:03.418Z,13.95
2022-10-23T03:42:10.499Z,13.91
2022-10-23T03:44:13.596Z,13.87
2022-10-23T03:46:19.915Z,13.85
2022-10-23T03:48:26.557Z,13.86
2022-10-23T03:50:35.024Z,13.89
2022-10-23T03:52:37.996Z,13.88
2022-10-23T03:54:48.328Z,13.91
2022-10-23T03:56:56.499Z,13.92
2022-10-23T03:59:00.833Z,13.91
2022-10-23T04:01:04.824Z,13.92
2022-10-23T04:03:07.841Z,13.92
2022-10-23T04:05:13.838Z,13.90
2022-10-23T04:07:26.843Z,13.91
2022-10-23T04:09:30.343Z,13.93
2022-10-23T04:11:33.377Z,13.93
2022-10-23T04:13:36.264Z,13.96
2022-10-23T04:15:39.166Z,14.02
2022-10-23T04:17:42.040Z,14.03
2022-10-23T04:19:45.030Z,13.99
2022-10-23T04:21:48.565Z,13.98
2022-10-23T04:23:52.964Z,14.00
2022-10-23T04:25:57.382Z,14.01
2022-10-23T04:28:01.280Z,14.02
2022-10-23T04:30:10.852Z,14.03
2022-10-23T04:32:14.727Z,14.02
2022-10-23T04:34:20.959Z,14.03
2022-10-23T04:36:23.948Z,14.03
2022-10-23T04:38:27.121Z,14.05
2022-10-23T04:40:33.451Z,14.09
2022-10-23T04:42:36.438Z,14.08
2022-10-23T04:44:39.600Z,14.12
2022-10-23T04:46:43.936Z,14.14
2022-10-23T04:48:47.204Z,14.16
2022-10-23T04:51:11.614Z,14.20
2022-10-23T04:53:43.184Z,14.19
2022-10-23T04:56:17.566Z,14.18
2022-10-23T04:58:49.755Z,14.17
2022-10-23T05:00:53.199Z,14.23
2022-10-23T05:03:00.296Z,14.24
2022-10-23T05:05:18.479Z,14.28
2022-10-23T05:07:39.676Z,14.33
2022-10-23T05:09:56.670Z,14.33
2022-10-23T05:12:21.328Z,14.40
2022-10-23T05:14:24.633Z,14.45
2022-10-23T05:16:34.844Z,14.46
2022-10-23T05:18:41.897Z,14.49
2022-10-23T05:20:46.707Z,14.51
2022-10-23T05:22:51.268Z,14.57
2022-10-23T05:24:57.636Z,14.60
2022-10-23T05:27:02.292Z,14.58
2022-10-23T05:29:08.634Z,14.64
2022-10-23T05:31:11.839Z,14.68
2022-10-23T05:33:16.802Z,14.72
2022-10-23T05:35:23.678Z,14.72
2022-10-23T05:37:27.936Z,14.74
2022-10-23T05:39:41.489Z,14.70
2022-10-23T05:41:49.003Z,14.72
2022-10-23T05:43:56.821Z,14.71
2022-10-23T05:46:24.313Z,14.70
2022-10-23T05:48:47.575Z,14.67
2022-10-23T05:50:50.867Z,14.65
2022-10-23T05:53:01.062Z,14.62
2022-10-23T05:55:07.914Z,14.59
2022-10-23T05:57:25.355Z,14.56
2022-10-23T05:59:28.960Z,14.49
2022-10-23T06:01:56.999Z,14.47
2022-10-23T06:04:23.168Z,14.29
2022-10-23T06:06:52.490Z,14.27
2022-10-23T06:08:55.768Z,14.22
2022-10-23T06:10:59.297Z,14.20
2022-10-23T06:13:02.285Z,14.16
2022-10-23T06:15:06.916Z,14.10
2022-10-23T06:17:32.949Z,14.02
2022-10-23T06:19:36.066Z,14.02
2022-10-23T06:21:39.529Z,14.07
2022-10-23T06:23:44.009Z,14.06
2022-10-23T06:26:01.398Z,14.14
2022-10-23T06:28:24.519Z,14.11
2022-10-23T06:30:27.602Z,14.11
2022-10-23T06:32:34.013Z,14.17
2022-10-23T06:34:46.475Z,14.25
2022-10-23T06:36:52.451Z,14.28
2022-10-23T06:39:13.810Z,14.33
2022-10-23T06:41:36.213Z,14.37
2022-10-23T06:43:41.580Z,14.45
2022-10-23T06:45:44.660Z,14.45
2022-10-23T06:47:55.710Z,14.49
2022-10-23T06:50:21.822Z,14.52
2022-10-23T06:52:45.341Z,14.55
2022-10-23T06:54:50.228Z,14.61
2022-10-23T06:56:56.909Z,14.66
2022-10-23T06:59:09.117Z,14.75
2022-10-23T07:01:14.426Z,14.77
2022-10-23T07:03:20.525Z,14.78
2022-10-23T07:05:24.094Z,14.84
2022-10-23T07:07:27.405Z,14.91
2022-10-23T07:09:30.437Z,14.93
2022-10-23T07:11:33.320Z,15.04
2022-10-23T07:13:38.518Z,15.13
2022-10-23T07:15:51.046Z,15.21
2022-10-23T07:17:58.919Z,15.26
2022-10-23T07:20:07.966Z,15.29
2022-10-23T07:22:14.899Z,15.34
2022-10-23T07:24:27.447Z,15.42
2022-10-23T07:26:33.293Z,15.52
2022-10-23T07:28:36.647Z,15.55
2022-10-23T07:30:41.039Z,15.59
2022-10-23T07:32:46.255Z,15.64
2022-10-23T07:37:26.581Z,15.55
2022-10-23T07:39:29.726Z,15.59
2022-10-23T07:41:33.142Z,15.58
2022-10-23T07:43:38.119Z,15.62
2022-10-23T07:45:42.533Z,15.63
2022-10-23T07:47:53.370Z,15.67
2022-10-23T07:50:00.278Z,15.59
2022-10-23T07:52:05.770Z,15.68
2022-10-23T07:54:26.043Z,15.62
2022-10-23T07:56:37.686Z,15.66
2022-10-23T07:58:53.694Z,15.65
2022-10-23T08:00:58.696Z,15.66
2022-10-23T08:03:08.363Z,15.73
2022-10-23T08:05:13.281Z,15.74
2022-10-23T08:07:29.747Z,15.79
2022-10-23T08:09:34.556Z,15.83
2022-10-23T08:11:39.510Z,15.84
2022-10-23T08:13:44.322Z,15.88
2022-10-23T08:15:49.628Z,15.90
2022-10-23T08:18:21.529Z,16.01
2022-10-23T08:20:24.481Z,16.03
2022-10-23T08:22:28.860Z,16.10
2022-10-23T08:24:31.960Z,16.23
2022-10-23T08:26:35.033Z,16.28
2022-10-23T08:28:38.929Z,16.33
2022-10-23T08:30:41.885Z,16.43
2022-10-23T08:32:44.915Z,16.51
2022-10-23T08:34:49.935Z,16.65
2022-10-23T08:36:53.255Z,16.72
2022-10-23T08:38:59.144Z,16.85
2022-10-23T08:41:03.495Z,16.89
2022-10-23T08:43:33.085Z,17.11
2022-10-23T08:45:52.341Z,17.29
2022-10-23T08:48:19.139Z,17.40
2022-10-23T08:50:56.765Z,17.69
2022-10-23T08:53:04.901Z,17.99
2022-10-23T08:55:27.080Z,18.07
2022-10-23T08:57:38.776Z,18.12
2022-10-23T08:59:48.497Z,18.38
2022-10-23T09:01:55.405Z,18.60
2022-10-23T09:03:58.645Z,18.67
2022-10-23T09:06:08.819Z,18.93
2022-10-23T09:08:25.758Z,19.00
2022-10-23T09:10:56.746Z,18.93
2022-10-23T09:13:05.393Z,19.12
2022-10-23T09:15:22.006Z,19.12
2022-10-23T09:17:26.997Z,19.13
2022-10-23T09:19:31.462Z,19.23
2022-10-23T09:21:37.071Z,19.17
2022-10-23T09:23:40.032Z,19.20
2022-10-23T09:25:43.932Z,19.36
2022-10-23T09:27:53.307Z,19.27
2022-10-23T09:29:59.419Z,19.46
2022-10-23T09:32:04.125Z,19.52
2022-10-23T09:34:11.570Z,19.60
2022-10-23T09:36:22.399Z,19.68
2022-10-23T09:38:30.505Z,19.81
2022-10-23T09:40:39.360Z,19.70
2022-10-23T09:42:55.110Z,19.82
2022-10-23T09:44:58.097Z,19.88
2022-10-23T09:47:02.621Z,19.94
2022-10-23T09:49:07.415Z,19.84
2022-10-23T09:51:21.549Z,19.88
2022-10-23T09:53:28.796Z,19.77
2022-10-23T09:55:31.923Z,19.81
2022-10-23T09:57:37.094Z,19.70
2022-10-23T09:59:41.951Z,19.61
2022-10-23T10:01:50.375Z,19.49
2022-10-23T10:04:11.966Z,19.56
2022-10-23T10:06:23.099Z,19.48
2022-10-23T10:08:40.635Z,19.51
2022-10-23T10:10:47.299Z,19.42
2022-10-23T10:12:51.962Z,19.46
2022-10-23T10:15:07.338Z,19.46
2022-10-23T10:17:17.488Z,19.43
2022-10-23T10:19:29.861Z,19.46
2022-10-23T10:21:38.956Z,19.49
2022-10-23T10:23:48.239Z,19.41
2022-10-23T10:25:57.555Z,19.43
2022-10-23T10:28:11.167Z,19.49
2022-10-23T10:30:21.243Z,19.55
2022-10-23T10:32:33.595Z,19.50
2022-10-23T10:34:43.219Z,19.53
2022-10-23T10:36:52.039Z,19.55
2022-10-23T10:38:59.032Z,19.56
2022-10-23T10:41:38.482Z,19.61
2022-10-23T10:43:46.299Z,19.57
2022-10-23T10:45:55.600Z,19.61
2022-10-23T10:48:20.626Z,19.63
2022-10-23T10:50:46.768Z,19.60
2022-10-23T10:53:02.231Z,19.60
2022-10-23T10:55:11.861Z,19.63
2022-10-23T10:57:21.150Z,19.63
2022-10-23T10:59:25.921Z,19.62
2022-10-23T11:01:34.827Z,19.66
2022-10-23T11:03:41.728Z,19.69
2022-10-23T11:05:46.109Z,19.73
2022-10-23T11:07:54.684Z,19.74
2022-10-23T11:10:00.608Z,19.73
2022-10-23T11:12:03.543Z,19.73
2022-10-23T11:14:08.858Z,19.73
2022-10-23T11:16:14.844Z,19.71
2022-10-23T11:18:25.534Z,19.72
2022-10-23T11:20:45.959Z,19.76
2022-10-23T11:22:52.223Z,19.76
2022-10-23T11:25:14.901Z,19.70
2022-10-23T11:27:58.175Z,19.72
2022-10-23T11:30:25.296Z,19.71
2022-10-23T11:32:50.115Z,19.74
2022-10-23T11:35:09.223Z,19.75
2022-10-23T11:37:17.522Z,19.80
2022-10-23T11:39:23.337Z,19.80
2022-10-23T11:41:34.715Z,19.76
2022-10-23T11:43:50.253Z,19.80
2022-10-23T11:45:54.515Z,19.80
2022-10-23T11:47:58.942Z,19.89
2022-10-23T11:50:28.553Z,19.93
2022-10-23T11:52:31.910Z,19.96
2022-10-23T11:54:34.856Z,19.97
2022-10-23T11:56:38.282Z,19.98
2022-10-23T11:58:45.605Z,19.98
2022-10-23T12:00:55.868Z,19.97
2022-10-23T12:02:59.460Z,20.00
2022-10-23T12:05:05.366Z,19.98
2022-10-23T12:07:19.286Z,19.98
2022-10-23T12:09:28.994Z,19.87
2022-10-23T12:11:45.707Z,19.84
2022-10-23T12:13:48.877Z,19.84
2022-10-23T12:15:57.118Z,19.88
2022-10-23T12:18:10.360Z,19.86
2022-10-23T12:20:32.191Z,19.80
2022-10-23T12:22:50.136Z,19.86
2022-10-23T12:24:59.592Z,19.87
2022-10-23T12:27:29.276Z,19.94
2022-10-23T12:29:41.878Z,19.98
2022-10-23T12:31:51.460Z,20.07
2022-10-23T12:34:01.612Z,20.12
2022-10-23T12:36:30.781Z,20.24
2022-10-23T12:38:36.329Z,20.30
2022-10-23T12:40:39.592Z,20.49
2022-10-23T12:42:42.767Z,20.64
2022-10-23T12:44:45.925Z,20.84
2022-10-23T12:46:50.039Z,20.92
2022-10-23T12:48:55.002Z,21.08
2022-10-23T12:50:58.017Z,21.15
2022-10-23T12:53:03.126Z,21.16
2022-10-23T12:55:16.171Z,21.30
2022-10-23T12:57:23.160Z,21.37
2022-10-23T12:59:28.187Z,21.45
2022-10-23T13:01:33.448Z,21.53
2022-10-23T13:03:37.739Z,21.54
2022-10-23T13:05:42.194Z,21.56
2022-10-23T13:07:47.640Z,21.63
2022-10-23T13:09:54.392Z,21.57
2022-10-23T13:12:24.585Z,21.66
2022-10-23T13:14:33.045Z,21.72
2022-10-23T13:16:37.049Z,21.68
2022-10-23T13:18:42.542Z,21.74
2022-10-23T13:20:57.640Z,21.80
2022-10-23T13:23:10.246Z,21.68
2022-10-23T13:25:23.718Z,21.73
2022-10-23T13:27:33.889Z,21.73
2022-10-23T13:29:39.308Z,21.68
2022-10-23T13:31:42.241Z,21.81
2022-10-23T13:33:46.544Z,21.79
2022-10-23T13:35:58.451Z,21.77
2022-10-23T13:38:12.215Z,21.67
2022-10-23T13:40:29.268Z,21.65
2022-10-23T13:42:33.576Z,21.62
2022-10-23T13:44:37.581Z,21.59
2022-10-23T13:46:41.595Z,21.52
2022-10-23T13:48:44.553Z,21.47
2022-10-23T13:50:47.680Z,21.42
2022-10-23T13:52:52.931Z,21.38
2022-10-23T13:54:56.366Z,21.29
2022-10-23T13:56:59.806Z,21.30
2022-10-23T13:59:04.769Z,21.35
2022-10-23T14:01:08.154Z,21.25
2022-10-23T14:03:15.228Z,21.23
2022-10-23T14:05:18.120Z,21.24
2022-10-23T14:07:21.525Z,21.26
2022-10-23T14:09:24.582Z,21.24
2022-10-23T14:11:27.720Z,21.15
2022-10-23T14:13:31.983Z,21.18
2022-10-23T14:15:36.286Z,21.19
2022-10-23T14:17:39.472Z,21.16
2022-10-23T14:19:42.461Z,21.11
2022-10-23T14:21:45.828Z,21.11
2022-10-23T14:23:49.714Z,21.11
2022-10-23T14:25:52.762Z,21.10
2022-10-23T14:30:05.495Z,20.98
2022-10-23T14:32:09.971Z,21.00
2022-10-23T14:34:13.534Z,20.97
2022-10-23T14:36:16.755Z,20.97
2022-10-23T14:38:19.998Z,20.96
2022-10-23T14:40:23.277Z,20.89
2022-10-23T14:42:29.413Z,20.77
2022-10-23T14:44:36.405Z,20.75
2022-10-23T14:46:41.374Z,20.78
2022-10-23T14:48:50.977Z,20.69
2022-10-23T14:51:00.870Z,20.64
2022-10-23T14:53:03.856Z,20.65
2022-10-23T14:55:09.697Z,20.65
2022-10-23T14:57:16.332Z,20.63
2022-10-23T14:59:20.417Z,20.62
2022-10-23T15:01:23.815Z,20.57
2022-10-23T15:03:27.241Z,20.55
2022-10-23T15:05:31.783Z,20.51
2022-10-23T15:07:34.788Z,20.49
2022-10-23T15:09:39.599Z,20.47
2022-10-23T15:11:42.537Z,20.46
2022-10-23T15:13:45.778Z,20.40
2022-10-23T15:15:50.309Z,20.35
2022-10-23T15:17:53.238Z,20.37
2022-10-23T15:19:56.487Z,20.27
2022-10-23T15:22:00.882Z,20.30
2022-10-23T15:24:04.704Z,20.28
2022-10-23T15:26:10.466Z,20.16
2022-10-23T15:28:14.828Z,20.19
2022-10-23T15:30:18.633Z,20.13
2022-10-23T15:32:21.823Z,20.14
2022-10-23T15:34:26.625Z,20.12
2022-10-23T15:36:29.562Z,20.12
2022-10-23T15:38:34.340Z,20.08
2022-10-23T15:40:37.451Z,20.05
2022-10-23T15:42:40.416Z,19.99
2022-10-23T15:44:43.437Z,20.00
2022-10-23T15:46:46.762Z,19.88
2022-10-23T15:48:49.613Z,19.85
2022-10-23T15:50:52.518Z,19.84
2022-10-23T15:52:55.698Z,19.83
2022-10-23T15:54:59.968Z,19.81
2022-10-23T15:57:03.494Z,19.76
2022-10-23T15:59:06.674Z,19.69
2022-10-23T16:01:09.636Z,19.64
2022-10-23T16:03:12.636Z,19.64
2022-10-23T16:05:17.791Z,19.63
2022-10-23T16:07:20.848Z,19.57
2022-10-23T16:09:24.147Z,19.53
2022-10-23T16:11:30.697Z,19.49
2022-10-23T16:13:34.068Z,19.41
2022-10-23T16:15:36.992Z,19.30
2022-10-23T16:17:40.074Z,19.18
2022-10-23T16:19:43.180Z,19.08
2022-10-23T16:21:46.177Z,18.97
2022-10-23T16:23:49.151Z,18.84
2022-10-23T16:25:52.430Z,18.82
2022-10-23T16:27:59.219Z,18.78
2022-10-23T16:30:02.113Z,18.74
2022-10-23T16:32:05.360Z,18.74
2022-10-23T16:34:08.268Z,18.67
2022-10-23T16:36:11.885Z,18.61
2022-10-23T16:38:40.842Z,18.60
2022-10-23T16:40:51.916Z,18.65
2022-10-23T16:43:16.888Z,18.66
2022-10-23T16:45:28.412Z,18.69
2022-10-23T16:47:31.762Z,18.74
2022-10-23T16:49:34.669Z,18.70
2022-10-23T16:51:37.725Z,18.74
2022-10-23T16:53:45.234Z,18.73
2022-10-23T16:55:48.126Z,18.76
2022-10-23T16:57:51.038Z,18.73
2022-10-23T16:59:55.527Z,18.56
2022-10-23T17:01:59.563Z,18.42
2022-10-23T17:04:02.652Z,18.23
2022-10-23T17:06:10.283Z,18.08
2022-10-23T17:08:14.106Z,17.91
2022-10-23T17:10:17.285Z,17.84
2022-10-23T17:12:20.207Z,17.76
2022-10-23T17:14:27.764Z,17.62
2022-10-23T17:16:34.456Z,17.56
2022-10-23T17:18:41.319Z,17.47
2022-10-23T17:20:46.769Z,17.42
2022-10-23T17:22:49.631Z,17.36
2022-10-23T17:24:54.230Z,17.28
2022-10-23T17:26:57.281Z,17.15
2022-10-23T17:29:01.112Z,17.08
2022-10-23T17:31:04.147Z,17.01
2022-10-23T17:33:08.424Z,16.88
2022-10-23T17:35:11.687Z,16.83
2022-10-23T17:37:14.749Z,16.77
2022-10-23T17:39:19.847Z,16.66
2022-10-23T17:41:23.938Z,16.60
2022-10-23T17:43:26.846Z,16.56
2022-10-23T17:45:30.040Z,16.48
2022-10-23T17:47:32.921Z,16.40
2022-10-23T17:49:38.712Z,16.38
2022-10-23T17:51:43.529Z,16.32
2022-10-23T17:53:48.084Z,16.28
2022-10-23T17:55:50.981Z,16.16
2022-10-23T17:57:54.091Z,16.05
2022-10-23T17:59:57.018Z,16.04
2022-10-23T18:02:00.807Z,16.05
2022-10-23T18:04:05.544Z,15.99
2022-10-23T18:06:11.017Z,16.02
2022-10-23T18:08:14.028Z,16.09
2022-10-23T18:10:16.992Z,16.11
2022-10-23T18:12:20.134Z,16.09
2022-10-23T18:14:25.167Z,16.09
2022-10-23T18:16:30.547Z,16.10
2022-10-23T18:18:33.785Z,16.12
2022-10-23T18:20:40.848Z,16.17
2022-10-23T18:22:45.519Z,16.16
2022-10-23T18:24:48.692Z,16.19
2022-10-23T18:26:51.561Z,16.16
2022-10-23T18:28:57.083Z,16.09
2022-10-23T18:31:00.557Z,16.12
2022-10-23T18:33:03.444Z,16.11
2022-10-23T18:35:06.873Z,16.09
2022-10-23T18:37:09.842Z,16.10
2022-10-23T18:39:16.666Z,16.12
2022-10-23T18:41:21.634Z,16.15
2022-10-23T18:43:42.633Z,16.16
2022-10-23T18:45:47.087Z,16.10
2022-10-23T18:47:50.374Z,16.10
2022-10-23T18:49:53.369Z,16.09
2022-10-23T18:51:58.259Z,16.09
2022-10-23T18:54:02.498Z,16.12
2022-10-23T18:56:08.550Z,16.10
2022-10-23T18:58:11.470Z,16.11
2022-10-23T19:00:15.557Z,16.14
2022-10-23T19:02:18.945Z,16.17
2022-10-23T19:04:22.140Z,16.20
2022-10-23T19:06:25.537Z,16.20
2022-10-23T19:08:28.596Z,16.17
2022-10-23T19:10:32.749Z,16.16
2022-10-23T19:12:37.028Z,16.20
2022-10-23T19:14:40.431Z,16.20
2022-10-23T19:16:46.494Z,16.22
2022-10-23T19:18:51.653Z,16.20
2022-10-23T19:20:54.726Z,16.19
2022-10-23T19:22:57.998Z,16.19
2022-10-23T19:25:04.188Z,16.18
2022-10-23T19:27:07.395Z,16.19
2022-10-23T19:29:14.665Z,16.20
2022-10-23T19:31:19.318Z,16.20
2022-10-23T19:33:22.435Z,16.20
2022-10-23T19:35:25.595Z,16.19
2022-10-23T19:37:31.474Z,16.25
2022-10-23T19:39:34.492Z,16.27
2022-10-23T19:41:38.697Z,16.32
2022-10-23T19:43:42.422Z,16.35
2022-10-23T19:45:46.688Z,16.36
2022-10-23T19:47:49.872Z,16.36
2022-10-23T19:49:52.889Z,16.39
2022-10-23T19:51:55.853Z,16.40
2022-10-23T19:53:59.049Z,16.42
2022-10-23T19:56:14.219Z,16.50
2022-10-23T19:58:17.127Z,16.51
2022-10-23T20:00:20.701Z,16.51
2022-10-23T20:02:25.168Z,16.47
2022-10-23T20:04:28.968Z,16.45
2022-10-23T20:06:35.531Z,16.47
2022-10-23T20:08:39.445Z,16.49
2022-10-23T20:10:43.103Z,16.50
2022-10-23T20:12:56.350Z,16.54
2022-10-23T20:15:00.314Z,16.60
2022-10-23T20:17:03.348Z,16.59
2022-10-23T20:19:10.680Z,16.61
2022-10-23T20:21:13.794Z,16.63
2022-10-23T20:23:16.684Z,16.64
2022-10-23T20:25:19.571Z,16.67
2022-10-23T20:27:22.497Z,16.74
2022-10-23T20:29:26.422Z,16.70
2022-10-23T20:31:29.475Z,16.69
2022-10-23T20:33:32.646Z,16.72
2022-10-23T20:35:41.078Z,16.71
2022-10-23T20:37:46.768Z,16.79
2022-10-23T20:39:50.386Z,16.80
2022-10-23T20:41:55.148Z,16.79
2022-10-23T20:43:58.119Z,16.80
2022-10-23T20:46:04.646Z,16.79
2022-10-23T20:48:09.746Z,16.80
2022-10-23T20:50:12.613Z,16.82
2022-10-23T20:52:16.869Z,16.86
2022-10-23T20:54:20.114Z,16.90
2022-10-23T20:56:29.852Z,16.89
2022-10-23T20:58:32.874Z,16.95
2022-10-23T21:00:35.858Z,16.97
2022-10-23T21:02:39.195Z,17.03
2022-10-23T21:04:42.208Z,17.05
2022-10-23T21:07:08.441Z,17.12
2022-10-23T21:11:15.774Z,17.28
2022-10-23T21:13:18.682Z,17.30
2022-10-23T21:15:21.581Z,17.28
2022-10-23T21:17:24.641Z,17.28
2022-10-23T21:19:27.670Z,17.23
2022-10-23T21:21:33.167Z,17.27
2022-10-23T21:23:36.572Z,17.41
2022-10-23T21:25:41.215Z,17.46
2022-10-23T21:27:44.317Z,17.48
2022-10-23T21:29:47.474Z,17.55
2022-10-23T21:31:54.076Z,17.55
2022-10-23T21:33:57.261Z,17.57
2022-10-23T21:36:11.852Z,17.57
2022-10-23T21:38:16.219Z,17.56
2022-10-23T21:40:19.313Z,17.60
2022-10-23T21:42:23.744Z,17.56
2022-10-23T21:44:26.927Z,17.54
2022-10-23T21:46:31.620Z,17.54
2022-10-23T21:48:34.702Z,17.51
2022-10-23T21:50:37.724Z,17.48
2022-10-23T21:52:41.582Z,17.49
2022-10-23T21:54:44.798Z,17.47
2022-10-23T21:56:49.485Z,17.44
2022-10-23T21:58:54.445Z,17.40
2022-10-23T22:00:57.454Z,17.39
2022-10-23T22:03:00.586Z,17.34
2022-10-23T22:05:03.488Z,17.37
2022-10-23T22:10:41.210Z,17.27
2022-10-23T22:12:44.408Z,17.19
2022-10-23T22:14:48.721Z,17.19
2022-10-23T22:16:52.261Z,17.18
2022-10-23T22:18:55.322Z,17.15
2022-10-23T22:21:01.792Z,17.14
2022-10-23T22:23:04.793Z,17.15
2022-10-23T22:25:08.735Z,17.14
2022-10-23T22:27:11.607Z,17.11
2022-10-23T22:29:16.475Z,17.10
2022-10-23T22:31:22.902Z,17.08
2022-10-23T22:33:27.322Z,17.05
2022-10-23T22:35:31.580Z,17.01
2022-10-23T22:37:34.993Z,17.07
2022-10-23T22:39:38.251Z,17.08
2022-10-23T22:41:41.221Z,17.11
2022-10-23T22:43:44.254Z,17.09
2022-10-23T22:45:47.267Z,17.11
2022-10-23T22:47:51.471Z,17.10
2022-10-23T22:49:54.345Z,17.13
2022-10-23T22:51:57.277Z,17.10
2022-10-23T22:54:00.670Z,17.10
2022-10-23T22:56:09.466Z,17.14
2022-10-23T22:58:12.373Z,17.06
2022-10-23T23:00:17.025Z,17.08
2022-10-23T23:02:20.064Z,17.07
2022-10-23T23:04:39.857Z,17.10
2022-10-23T23:06:43.027Z,17.15
2022-10-23T23:08:46.119Z,17.14
2022-10-23T23:10:54.003Z,17.19
2022-10-23T23:12:57.244Z,17.17
2022-10-23T23:15:00.355Z,17.19
2022-10-23T23:17:03.592Z,17.22
2022-10-23T23:19:06.536Z,17.19
2022-10-23T23:21:10.812Z,17.20
2022-10-23T23:23:14.125Z,17.19
2022-10-23T23:25:17.137Z,17.25
2022-10-23T23:27:20.009Z,17.22
2022-10-23T23:29:22.924Z,17.22
2022-10-23T23:31:27.013Z,17.24
2022-10-23T23:33:30.242Z,17.21
2022-10-23T23:35:33.160Z,17.21
2022-10-23T23:37:37.431Z,17.17
2022-10-23T23:39:40.313Z,17.16
2022-10-23T23:41:43.263Z,17.18
2022-10-23T23:43:46.558Z,17.15
2022-10-23T23:45:49.427Z,17.15
2022-10-23T23:47:52.262Z,17.16
2022-10-23T23:49:55.310Z,17.18
2022-10-23T23:51:58.377Z,17.16
2022-10-23T23:54:02.678Z,17.20
2022-10-23T23:56:06.069Z,17.18
2022-10-23T23:58:09.103Z,17.15
